sensor_id;sensor_type;location;lat;lon;timestamp;P1;durP1;ratioP1;P2;durP2;ratioP2
71562;SDS011;59391;52.504;13.438;2023-04-15T00:00:48;31.60;;;19.75;;
71562;SDS011;59391;52.504;13.438;2023-04-15T00:03:15;31.27;;;18.47;;
71562;SDS011;59391;52.504;13.438;2023-04-15T00:05:41;33.28;;;18.85;;
71562;SDS011;59391;52.504;13.438;2023-04-15T00:08:07;32.33;;;18.58;;
71562;SDS011;59391;52.504;13.438;2023-04-15T00:10:32;31.90;;;19.33;;
71562;SDS011;59391;52.504;13.438;2023-04-15T00:12:58;33.70;;;20.30;;
71562;SDS011;59391;52.504;13.438;2023-04-15T00:15:24;32.75;;;19.60;;
71562;SDS011;59391;52.504;13.438;2023-04-15T00:17:51;35.05;;;20.48;;
71562;SDS011;59391;52.504;13.438;2023-04-15T00:20:17;31.40;;;19.52;;
71562;SDS011;59391;52.504;13.438;2023-04-15T00:22:42;33.20;;;19.13;;
71562;SDS011;59391;52.504;13.438;2023-04-15T00:25:08;31.80;;;19.55;;
71562;SDS011;59391;52.504;13.438;2023-04-15T00:27:34;37.42;;;19.92;;
71562;SDS011;59391;52.504;13.438;2023-04-15T00:29:59;33.83;;;19.92;;
71562;SDS011;59391;52.504;13.438;2023-04-15T00:32:25;33.10;;;19.55;;
71562;SDS011;59391;52.504;13.438;2023-04-15T00:34:51;35.88;;;21.00;;
71562;SDS011;59391;52.504;13.438;2023-04-15T00:37:17;33.97;;;20.83;;
71562;SDS011;59391;52.504;13.438;2023-04-15T00:39:42;35.50;;;20.30;;
71562;SDS011;59391;52.504;13.438;2023-04-15T00:42:09;35.22;;;20.35;;
71562;SDS011;59391;52.504;13.438;2023-04-15T00:44:34;36.83;;;20.65;;
71562;SDS011;59391;52.504;13.438;2023-04-15T00:47:00;36.23;;;21.40;;
71562;SDS011;59391;52.504;13.438;2023-04-15T00:49:28;45.88;;;26.10;;
71562;SDS011;59391;52.504;13.438;2023-04-15T00:51:53;37.90;;;21.42;;
71562;SDS011;59391;52.504;13.438;2023-04-15T00:54:19;35.43;;;21.27;;
71562;SDS011;59391;52.504;13.438;2023-04-15T00:56:46;35.83;;;21.15;;
71562;SDS011;59391;52.504;13.438;2023-04-15T00:59:12;35.80;;;20.50;;
71562;SDS011;59391;52.504;13.438;2023-04-15T01:01:39;39.90;;;21.75;;
71562;SDS011;59391;52.504;13.438;2023-04-15T01:04:05;36.92;;;20.52;;
71562;SDS011;59391;52.504;13.438;2023-04-15T01:06:32;37.53;;;21.73;;
71562;SDS011;59391;52.504;13.438;2023-04-15T01:08:59;38.87;;;21.23;;
71562;SDS011;59391;52.504;13.438;2023-04-15T01:11:25;40.45;;;21.77;;
71562;SDS011;59391;52.504;13.438;2023-04-15T01:13:52;40.35;;;21.15;;
71562;SDS011;59391;52.504;13.438;2023-04-15T01:16:24;39.72;;;21.95;;
71562;SDS011;59391;52.504;13.438;2023-04-15T01:18:51;40.15;;;21.85;;
71562;SDS011;59391;52.504;13.438;2023-04-15T01:21:17;40.00;;;21.00;;
71562;SDS011;59391;52.504;13.438;2023-04-15T01:23:44;39.15;;;21.38;;
71562;SDS011;59391;52.504;13.438;2023-04-15T01:26:12;40.97;;;22.25;;
71562;SDS011;59391;52.504;13.438;2023-04-15T01:28:38;39.35;;;21.95;;
71562;SDS011;59391;52.504;13.438;2023-04-15T01:31:11;41.63;;;22.63;;
71562;SDS011;59391;52.504;13.438;2023-04-15T01:33:39;41.45;;;21.55;;
71562;SDS011;59391;52.504;13.438;2023-04-15T01:36:07;45.22;;;23.83;;
71562;SDS011;59391;52.504;13.438;2023-04-15T01:38:36;43.47;;;23.37;;
71562;SDS011;59391;52.504;13.438;2023-04-15T01:41:02;43.08;;;22.80;;
71562;SDS011;59391;52.504;13.438;2023-04-15T01:43:30;46.45;;;23.48;;
71562;SDS011;59391;52.504;13.438;2023-04-15T01:45:56;42.65;;;23.27;;
71562;SDS011;59391;52.504;13.438;2023-04-15T01:48:22;44.10;;;22.25;;
71562;SDS011;59391;52.504;13.438;2023-04-15T01:50:47;42.70;;;23.13;;
71562;SDS011;59391;52.504;13.438;2023-04-15T01:53:13;46.17;;;22.65;;
71562;SDS011;59391;52.504;13.438;2023-04-15T01:55:39;41.70;;;22.38;;
71562;SDS011;59391;52.504;13.438;2023-04-15T01:58:05;42.25;;;23.02;;
71562;SDS011;59391;52.504;13.438;2023-04-15T02:00:31;41.57;;;22.93;;
71562;SDS011;59391;52.504;13.438;2023-04-15T02:02:57;43.33;;;24.00;;
71562;SDS011;59391;52.504;13.438;2023-04-15T02:05:23;44.97;;;23.98;;
71562;SDS011;59391;52.504;13.438;2023-04-15T02:07:50;45.17;;;23.37;;
71562;SDS011;59391;52.504;13.438;2023-04-15T02:10:15;41.72;;;22.38;;
71562;SDS011;59391;52.504;13.438;2023-04-15T02:12:41;44.03;;;23.00;;
71562;SDS011;59391;52.504;13.438;2023-04-15T02:15:07;40.83;;;22.30;;
71562;SDS011;59391;52.504;13.438;2023-04-15T02:17:34;43.85;;;22.65;;
71562;SDS011;59391;52.504;13.438;2023-04-15T02:20:03;42.53;;;22.27;;
71562;SDS011;59391;52.504;13.438;2023-04-15T02:22:32;42.92;;;23.05;;
71562;SDS011;59391;52.504;13.438;2023-04-15T02:24:58;45.30;;;22.97;;
71562;SDS011;59391;52.504;13.438;2023-04-15T02:27:24;43.03;;;22.52;;
71562;SDS011;59391;52.504;13.438;2023-04-15T02:29:50;44.43;;;22.57;;
71562;SDS011;59391;52.504;13.438;2023-04-15T02:32:16;48.33;;;23.15;;
71562;SDS011;59391;52.504;13.438;2023-04-15T02:34:41;42.70;;;22.80;;
71562;SDS011;59391;52.504;13.438;2023-04-15T02:37:07;45.20;;;21.53;;
71562;SDS011;59391;52.504;13.438;2023-04-15T02:39:35;43.42;;;24.10;;
71562;SDS011;59391;52.504;13.438;2023-04-15T02:42:01;50.20;;;27.55;;
71562;SDS011;59391;52.504;13.438;2023-04-15T02:44:28;42.95;;;22.92;;
71562;SDS011;59391;52.504;13.438;2023-04-15T02:46:55;45.50;;;24.00;;
71562;SDS011;59391;52.504;13.438;2023-04-15T02:49:22;45.35;;;23.88;;
71562;SDS011;59391;52.504;13.438;2023-04-15T02:51:48;44.80;;;23.40;;
71562;SDS011;59391;52.504;13.438;2023-04-15T02:54:18;46.58;;;24.48;;
71562;SDS011;59391;52.504;13.438;2023-04-15T02:56:46;42.15;;;22.77;;
71562;SDS011;59391;52.504;13.438;2023-04-15T02:59:12;45.00;;;23.20;;
71562;SDS011;59391;52.504;13.438;2023-04-15T03:01:38;41.85;;;22.35;;
71562;SDS011;59391;52.504;13.438;2023-04-15T03:04:04;42.53;;;22.10;;
71562;SDS011;59391;52.504;13.438;2023-04-15T03:06:30;42.95;;;22.23;;
71562;SDS011;59391;52.504;13.438;2023-04-15T03:08:55;43.45;;;22.65;;
71562;SDS011;59391;52.504;13.438;2023-04-15T03:11:21;40.10;;;22.88;;
71562;SDS011;59391;52.504;13.438;2023-04-15T03:13:47;41.70;;;22.57;;
71562;SDS011;59391;52.504;13.438;2023-04-15T03:16:13;42.17;;;22.52;;
71562;SDS011;59391;52.504;13.438;2023-04-15T03:18:38;41.33;;;22.37;;
71562;SDS011;59391;52.504;13.438;2023-04-15T03:21:04;41.63;;;22.45;;
71562;SDS011;59391;52.504;13.438;2023-04-15T03:23:30;42.63;;;23.43;;
71562;SDS011;59391;52.504;13.438;2023-04-15T03:25:56;39.45;;;21.85;;
71562;SDS011;59391;52.504;13.438;2023-04-15T03:28:22;44.97;;;24.23;;
71562;SDS011;59391;52.504;13.438;2023-04-15T03:30:48;42.63;;;22.63;;
71562;SDS011;59391;52.504;13.438;2023-04-15T03:33:14;40.03;;;21.33;;
71562;SDS011;59391;52.504;13.438;2023-04-15T03:35:39;41.35;;;22.10;;
71562;SDS011;59391;52.504;13.438;2023-04-15T03:38:05;42.28;;;23.35;;
71562;SDS011;59391;52.504;13.438;2023-04-15T03:40:31;42.90;;;22.17;;
71562;SDS011;59391;52.504;13.438;2023-04-15T03:42:57;36.90;;;21.98;;
71562;SDS011;59391;52.504;13.438;2023-04-15T03:45:22;41.50;;;22.00;;
71562;SDS011;59391;52.504;13.438;2023-04-15T03:47:48;39.78;;;22.13;;
71562;SDS011;59391;52.504;13.438;2023-04-15T03:50:13;40.57;;;22.40;;
71562;SDS011;59391;52.504;13.438;2023-04-15T03:52:39;37.90;;;21.92;;
71562;SDS011;59391;52.504;13.438;2023-04-15T03:55:05;36.93;;;20.40;;
71562;SDS011;59391;52.504;13.438;2023-04-15T03:57:32;36.97;;;21.10;;
71562;SDS011;59391;52.504;13.438;2023-04-15T04:00:02;36.03;;;20.17;;
71562;SDS011;59391;52.504;13.438;2023-04-15T04:02:29;39.25;;;21.88;;
71562;SDS011;59391;52.504;13.438;2023-04-15T04:04:55;37.13;;;20.60;;
71562;SDS011;59391;52.504;13.438;2023-04-15T04:07:22;40.40;;;21.80;;
71562;SDS011;59391;52.504;13.438;2023-04-15T04:09:48;37.28;;;21.73;;
71562;SDS011;59391;52.504;13.438;2023-04-15T04:12:14;38.90;;;21.75;;
71562;SDS011;59391;52.504;13.438;2023-04-15T04:14:40;33.67;;;19.50;;
71562;SDS011;59391;52.504;13.438;2023-04-15T04:17:06;36.70;;;20.83;;
71562;SDS011;59391;52.504;13.438;2023-04-15T04:19:32;40.97;;;22.85;;
71562;SDS011;59391;52.504;13.438;2023-04-15T04:21:58;37.38;;;21.20;;
71562;SDS011;59391;52.504;13.438;2023-04-15T04:24:23;37.07;;;20.47;;
71562;SDS011;59391;52.504;13.438;2023-04-15T04:26:49;36.55;;;20.88;;
71562;SDS011;59391;52.504;13.438;2023-04-15T04:29:15;38.47;;;21.63;;
71562;SDS011;59391;52.504;13.438;2023-04-15T04:31:40;35.20;;;20.13;;
71562;SDS011;59391;52.504;13.438;2023-04-15T04:34:06;34.37;;;19.47;;
71562;SDS011;59391;52.504;13.438;2023-04-15T04:36:32;34.43;;;20.13;;
71562;SDS011;59391;52.504;13.438;2023-04-15T04:38:57;37.83;;;20.88;;
71562;SDS011;59391;52.504;13.438;2023-04-15T04:41:23;35.45;;;20.45;;
71562;SDS011;59391;52.504;13.438;2023-04-15T04:43:49;35.30;;;19.93;;
71562;SDS011;59391;52.504;13.438;2023-04-15T04:46:15;35.15;;;19.55;;
71562;SDS011;59391;52.504;13.438;2023-04-15T04:48:40;35.45;;;20.48;;
71562;SDS011;59391;52.504;13.438;2023-04-15T04:51:06;35.00;;;19.87;;
71562;SDS011;59391;52.504;13.438;2023-04-15T04:53:32;32.47;;;18.92;;
71562;SDS011;59391;52.504;13.438;2023-04-15T04:55:58;37.77;;;20.53;;
71562;SDS011;59391;52.504;13.438;2023-04-15T04:58:23;33.10;;;19.13;;
71562;SDS011;59391;52.504;13.438;2023-04-15T05:00:49;33.90;;;19.70;;
71562;SDS011;59391;52.504;13.438;2023-04-15T05:03:15;32.78;;;19.80;;
71562;SDS011;59391;52.504;13.438;2023-04-15T05:05:40;33.37;;;19.80;;
71562;SDS011;59391;52.504;13.438;2023-04-15T05:08:06;32.60;;;19.05;;
71562;SDS011;59391;52.504;13.438;2023-04-15T05:10:32;30.93;;;18.43;;
71562;SDS011;59391;52.504;13.438;2023-04-15T05:12:57;34.40;;;20.25;;
71562;SDS011;59391;52.504;13.438;2023-04-15T05:15:23;31.03;;;18.77;;
71562;SDS011;59391;52.504;13.438;2023-04-15T05:17:49;30.83;;;17.83;;
71562;SDS011;59391;52.504;13.438;2023-04-15T05:20:15;29.80;;;18.30;;
71562;SDS011;59391;52.504;13.438;2023-04-15T05:22:41;28.03;;;19.23;;
71562;SDS011;59391;52.504;13.438;2023-04-15T05:25:06;29.23;;;18.73;;
71562;SDS011;59391;52.504;13.438;2023-04-15T05:27:33;33.07;;;18.90;;
71562;SDS011;59391;52.504;13.438;2023-04-15T05:29:58;26.58;;;16.58;;
71562;SDS011;59391;52.504;13.438;2023-04-15T05:32:24;27.00;;;18.10;;
71562;SDS011;59391;52.504;13.438;2023-04-15T05:34:50;25.38;;;16.52;;
71562;SDS011;59391;52.504;13.438;2023-04-15T05:37:16;27.33;;;17.43;;
71562;SDS011;59391;52.504;13.438;2023-04-15T05:39:41;25.92;;;17.58;;
71562;SDS011;59391;52.504;13.438;2023-04-15T05:42:07;26.93;;;16.53;;
71562;SDS011;59391;52.504;13.438;2023-04-15T05:44:33;24.95;;;16.33;;
71562;SDS011;59391;52.504;13.438;2023-04-15T05:46:58;27.03;;;17.67;;
71562;SDS011;59391;52.504;13.438;2023-04-15T05:49:24;26.38;;;16.83;;
71562;SDS011;59391;52.504;13.438;2023-04-15T05:51:50;26.47;;;16.63;;
71562;SDS011;59391;52.504;13.438;2023-04-15T05:54:16;26.88;;;16.42;;
71562;SDS011;59391;52.504;13.438;2023-04-15T05:56:42;25.13;;;16.77;;
71562;SDS011;59391;52.504;13.438;2023-04-15T05:59:08;28.55;;;16.45;;
71562;SDS011;59391;52.504;13.438;2023-04-15T06:01:33;24.80;;;16.43;;
71562;SDS011;59391;52.504;13.438;2023-04-15T06:03:59;28.40;;;17.38;;
71562;SDS011;59391;52.504;13.438;2023-04-15T06:06:25;25.00;;;16.98;;
71562;SDS011;59391;52.504;13.438;2023-04-15T06:08:51;23.55;;;15.90;;
71562;SDS011;59391;52.504;13.438;2023-04-15T06:11:17;23.63;;;15.57;;
71562;SDS011;59391;52.504;13.438;2023-04-15T06:13:45;23.83;;;16.00;;
71562;SDS011;59391;52.504;13.438;2023-04-15T06:16:10;29.75;;;19.05;;
71562;SDS011;59391;52.504;13.438;2023-04-15T06:18:36;23.23;;;15.83;;
71562;SDS011;59391;52.504;13.438;2023-04-15T06:21:02;22.65;;;16.27;;
71562;SDS011;59391;52.504;13.438;2023-04-15T06:23:28;23.45;;;14.93;;
71562;SDS011;59391;52.504;13.438;2023-04-15T06:25:54;22.80;;;15.60;;
71562;SDS011;59391;52.504;13.438;2023-04-15T06:28:19;20.92;;;15.00;;
71562;SDS011;59391;52.504;13.438;2023-04-15T06:30:45;23.23;;;15.70;;
71562;SDS011;59391;52.504;13.438;2023-04-15T06:33:11;22.23;;;15.23;;
71562;SDS011;59391;52.504;13.438;2023-04-15T06:35:37;21.85;;;15.75;;
71562;SDS011;59391;52.504;13.438;2023-04-15T06:38:03;21.90;;;15.45;;
71562;SDS011;59391;52.504;13.438;2023-04-15T06:40:29;22.80;;;15.00;;
71562;SDS011;59391;52.504;13.438;2023-04-15T06:42:55;21.35;;;15.85;;
71562;SDS011;59391;52.504;13.438;2023-04-15T06:45:20;23.33;;;15.57;;
71562;SDS011;59391;52.504;13.438;2023-04-15T06:47:46;21.60;;;15.13;;
71562;SDS011;59391;52.504;13.438;2023-04-15T06:50:12;22.15;;;15.88;;
71562;SDS011;59391;52.504;13.438;2023-04-15T06:52:37;21.33;;;13.60;;
71562;SDS011;59391;52.504;13.438;2023-04-15T06:55:03;22.10;;;15.07;;
71562;SDS011;59391;52.504;13.438;2023-04-15T06:57:30;22.85;;;15.30;;
71562;SDS011;59391;52.504;13.438;2023-04-15T06:59:56;22.42;;;14.45;;
71562;SDS011;59391;52.504;13.438;2023-04-15T07:02:22;21.87;;;13.90;;
71562;SDS011;59391;52.504;13.438;2023-04-15T07:04:47;19.17;;;13.88;;
71562;SDS011;59391;52.504;13.438;2023-04-15T07:07:13;19.73;;;13.87;;
71562;SDS011;59391;52.504;13.438;2023-04-15T07:09:39;19.60;;;14.27;;
71562;SDS011;59391;52.504;13.438;2023-04-15T07:12:05;18.88;;;13.77;;
71562;SDS011;59391;52.504;13.438;2023-04-15T07:14:31;22.43;;;13.87;;
71562;SDS011;59391;52.504;13.438;2023-04-15T07:16:56;20.55;;;13.52;;
71562;SDS011;59391;52.504;13.438;2023-04-15T07:19:22;22.40;;;13.70;;
71562;SDS011;59391;52.504;13.438;2023-04-15T07:21:48;20.80;;;14.80;;
71562;SDS011;59391;52.504;13.438;2023-04-15T07:24:13;19.92;;;14.30;;
71562;SDS011;59391;52.504;13.438;2023-04-15T07:26:42;22.05;;;14.43;;
71562;SDS011;59391;52.504;13.438;2023-04-15T07:29:09;19.70;;;14.35;;
71562;SDS011;59391;52.504;13.438;2023-04-15T07:31:34;19.25;;;13.80;;
71562;SDS011;59391;52.504;13.438;2023-04-15T07:34:01;20.75;;;15.45;;
71562;SDS011;59391;52.504;13.438;2023-04-15T07:36:27;21.83;;;14.25;;
71562;SDS011;59391;52.504;13.438;2023-04-15T07:38:53;17.55;;;13.35;;
71562;SDS011;59391;52.504;13.438;2023-04-15T07:41:19;20.60;;;13.65;;
71562;SDS011;59391;52.504;13.438;2023-04-15T07:43:45;21.77;;;13.98;;
71562;SDS011;59391;52.504;13.438;2023-04-15T07:46:12;22.47;;;15.43;;
71562;SDS011;59391;52.504;13.438;2023-04-15T07:48:38;19.38;;;14.43;;
71562;SDS011;59391;52.504;13.438;2023-04-15T07:51:04;22.08;;;13.57;;
71562;SDS011;59391;52.504;13.438;2023-04-15T07:53:30;19.65;;;14.18;;
71562;SDS011;59391;52.504;13.438;2023-04-15T07:55:57;20.23;;;13.73;;
71562;SDS011;59391;52.504;13.438;2023-04-15T07:58:23;25.50;;;16.75;;
71562;SDS011;59391;52.504;13.438;2023-04-15T08:00:49;21.02;;;14.05;;
71562;SDS011;59391;52.504;13.438;2023-04-15T08:03:15;20.10;;;15.20;;
71562;SDS011;59391;52.504;13.438;2023-04-15T08:05:41;19.88;;;14.50;;
71562;SDS011;59391;52.504;13.438;2023-04-15T08:08:06;19.40;;;13.73;;
71562;SDS011;59391;52.504;13.438;2023-04-15T08:10:32;19.95;;;14.07;;
71562;SDS011;59391;52.504;13.438;2023-04-15T08:12:58;20.03;;;14.27;;
71562;SDS011;59391;52.504;13.438;2023-04-15T08:15:24;20.50;;;14.60;;
71562;SDS011;59391;52.504;13.438;2023-04-15T08:17:51;19.77;;;14.70;;
71562;SDS011;59391;52.504;13.438;2023-04-15T08:20:16;21.50;;;15.10;;
71562;SDS011;59391;52.504;13.438;2023-04-15T08:22:43;20.77;;;14.45;;
71562;SDS011;59391;52.504;13.438;2023-04-15T08:25:10;22.98;;;15.30;;
71562;SDS011;59391;52.504;13.438;2023-04-15T08:27:35;21.67;;;15.10;;
71562;SDS011;59391;52.504;13.438;2023-04-15T08:30:01;21.85;;;15.35;;
71562;SDS011;59391;52.504;13.438;2023-04-15T08:32:27;20.87;;;15.40;;
71562;SDS011;59391;52.504;13.438;2023-04-15T08:34:53;19.75;;;14.27;;
71562;SDS011;59391;52.504;13.438;2023-04-15T08:37:18;24.47;;;16.93;;
71562;SDS011;59391;52.504;13.438;2023-04-15T08:39:44;22.20;;;15.38;;
71562;SDS011;59391;52.504;13.438;2023-04-15T08:42:11;21.77;;;14.87;;
71562;SDS011;59391;52.504;13.438;2023-04-15T08:44:42;22.90;;;15.98;;
71562;SDS011;59391;52.504;13.438;2023-04-15T08:47:08;23.95;;;15.95;;
71562;SDS011;59391;52.504;13.438;2023-04-15T08:49:39;27.33;;;16.08;;
71562;SDS011;59391;52.504;13.438;2023-04-15T08:52:07;24.58;;;16.13;;
71562;SDS011;59391;52.504;13.438;2023-04-15T08:54:33;21.63;;;15.50;;
71562;SDS011;59391;52.504;13.438;2023-04-15T08:57:00;21.08;;;15.77;;
71562;SDS011;59391;52.504;13.438;2023-04-15T08:59:26;22.02;;;15.27;;
71562;SDS011;59391;52.504;13.438;2023-04-15T09:01:56;19.98;;;14.85;;
71562;SDS011;59391;52.504;13.438;2023-04-15T09:04:22;23.08;;;16.20;;
71562;SDS011;59391;52.504;13.438;2023-04-15T09:06:48;21.30;;;15.47;;
71562;SDS011;59391;52.504;13.438;2023-04-15T09:09:14;22.67;;;15.30;;
71562;SDS011;59391;52.504;13.438;2023-04-15T09:11:39;21.65;;;15.90;;
71562;SDS011;59391;52.504;13.438;2023-04-15T09:14:06;22.00;;;15.90;;
71562;SDS011;59391;52.504;13.438;2023-04-15T09:16:54;21.67;;;15.40;;
71562;SDS011;59391;52.504;13.438;2023-04-15T09:19:23;22.35;;;15.93;;
71562;SDS011;59391;52.504;13.438;2023-04-15T09:21:50;21.38;;;15.07;;
71562;SDS011;59391;52.504;13.438;2023-04-15T09:24:18;20.23;;;15.25;;
71562;SDS011;59391;52.504;13.438;2023-04-15T09:26:44;22.50;;;15.77;;
71562;SDS011;59391;52.504;13.438;2023-04-15T09:29:10;20.95;;;15.52;;
71562;SDS011;59391;52.504;13.438;2023-04-15T09:31:39;22.25;;;15.77;;
71562;SDS011;59391;52.504;13.438;2023-04-15T09:34:06;20.80;;;15.77;;
71562;SDS011;59391;52.504;13.438;2023-04-15T09:39:15;20.90;;;14.63;;
71562;SDS011;59391;52.504;13.438;2023-04-15T09:41:41;21.03;;;15.90;;
71562;SDS011;59391;52.504;13.438;2023-04-15T09:44:20;21.58;;;15.45;;
71562;SDS011;59391;52.504;13.438;2023-04-15T09:46:48;20.83;;;15.13;;
71562;SDS011;59391;52.504;13.438;2023-04-15T09:49:13;25.60;;;17.60;;
71562;SDS011;59391;52.504;13.438;2023-04-15T09:51:40;21.30;;;15.55;;
71562;SDS011;59391;52.504;13.438;2023-04-15T09:54:05;22.90;;;15.77;;
71562;SDS011;59391;52.504;13.438;2023-04-15T09:56:33;20.58;;;14.98;;
71562;SDS011;59391;52.504;13.438;2023-04-15T09:59:05;21.08;;;15.10;;
71562;SDS011;59391;52.504;13.438;2023-04-15T10:01:32;20.73;;;15.23;;
71562;SDS011;59391;52.504;13.438;2023-04-15T10:03:58;21.85;;;15.45;;
71562;SDS011;59391;52.504;13.438;2023-04-15T10:06:29;21.15;;;15.07;;
71562;SDS011;59391;52.504;13.438;2023-04-15T10:08:56;20.23;;;14.90;;
71562;SDS011;59391;52.504;13.438;2023-04-15T10:11:23;20.42;;;15.20;;
71562;SDS011;59391;52.504;13.438;2023-04-15T10:13:52;20.85;;;15.20;;
71562;SDS011;59391;52.504;13.438;2023-04-15T10:16:19;20.67;;;15.38;;
71562;SDS011;59391;52.504;13.438;2023-04-15T10:18:46;22.65;;;14.52;;
71562;SDS011;59391;52.504;13.438;2023-04-15T10:21:20;18.63;;;14.55;;
71562;SDS011;59391;52.504;13.438;2023-04-15T10:23:47;21.75;;;15.02;;
71562;SDS011;59391;52.504;13.438;2023-04-15T10:26:14;20.90;;;14.98;;
71562;SDS011;59391;52.504;13.438;2023-04-15T10:28:41;21.83;;;15.23;;
71562;SDS011;59391;52.504;13.438;2023-04-15T10:31:14;20.73;;;15.20;;
71562;SDS011;59391;52.504;13.438;2023-04-15T10:33:43;22.13;;;15.90;;
71562;SDS011;59391;52.504;13.438;2023-04-15T10:36:11;19.98;;;14.77;;
71562;SDS011;59391;52.504;13.438;2023-04-15T10:38:40;20.23;;;14.30;;
71562;SDS011;59391;52.504;13.438;2023-04-15T10:41:12;18.88;;;14.43;;
71562;SDS011;59391;52.504;13.438;2023-04-15T10:43:53;18.75;;;14.15;;
71562;SDS011;59391;52.504;13.438;2023-04-15T10:46:43;19.48;;;13.82;;
71562;SDS011;59391;52.504;13.438;2023-04-15T10:51:52;18.25;;;13.18;;
71562;SDS011;59391;52.504;13.438;2023-04-15T10:57:34;20.50;;;14.53;;
71562;SDS011;59391;52.504;13.438;2023-04-15T11:05:10;18.60;;;13.82;;
71562;SDS011;59391;52.504;13.438;2023-04-15T11:07:38;18.67;;;13.95;;
71562;SDS011;59391;52.504;13.438;2023-04-15T11:12:54;18.15;;;13.40;;
71562;SDS011;59391;52.504;13.438;2023-04-15T11:15:39;17.63;;;13.65;;
71562;SDS011;59391;52.504;13.438;2023-04-15T11:18:09;19.17;;;14.10;;
71562;SDS011;59391;52.504;13.438;2023-04-15T11:20:41;18.77;;;13.60;;
71562;SDS011;59391;52.504;13.438;2023-04-15T11:23:12;19.23;;;13.40;;
71562;SDS011;59391;52.504;13.438;2023-04-15T11:25:44;17.83;;;12.93;;
71562;SDS011;59391;52.504;13.438;2023-04-15T11:28:10;18.67;;;14.55;;
71562;SDS011;59391;52.504;13.438;2023-04-15T11:30:37;17.00;;;13.23;;
71562;SDS011;59391;52.504;13.438;2023-04-15T11:33:05;18.88;;;13.50;;
71562;SDS011;59391;52.504;13.438;2023-04-15T11:35:33;17.07;;;12.57;;
71562;SDS011;59391;52.504;13.438;2023-04-15T11:38:03;17.88;;;13.13;;
71562;SDS011;59391;52.504;13.438;2023-04-15T11:40:32;17.20;;;13.40;;
71562;SDS011;59391;52.504;13.438;2023-04-15T11:43:09;20.25;;;13.82;;
71562;SDS011;59391;52.504;13.438;2023-04-15T11:45:55;21.63;;;15.60;;
71562;SDS011;59391;52.504;13.438;2023-04-15T11:48:24;19.93;;;13.63;;
71562;SDS011;59391;52.504;13.438;2023-04-15T11:50:56;18.75;;;13.60;;
71562;SDS011;59391;52.504;13.438;2023-04-15T11:53:38;19.55;;;13.55;;
71562;SDS011;59391;52.504;13.438;2023-04-15T11:56:16;19.10;;;14.20;;
71562;SDS011;59391;52.504;13.438;2023-04-15T11:58:54;18.85;;;13.35;;
71562;SDS011;59391;52.504;13.438;2023-04-15T12:01:35;18.63;;;13.63;;
71562;SDS011;59391;52.504;13.438;2023-04-15T12:04:15;18.30;;;13.45;;
71562;SDS011;59391;52.504;13.438;2023-04-15T12:06:47;18.65;;;12.90;;
71562;SDS011;59391;52.504;13.438;2023-04-15T12:09:13;22.38;;;14.20;;
71562;SDS011;59391;52.504;13.438;2023-04-15T12:14:25;17.83;;;12.97;;
71562;SDS011;59391;52.504;13.438;2023-04-15T12:16:53;20.35;;;13.75;;
71562;SDS011;59391;52.504;13.438;2023-04-15T12:19:26;17.05;;;12.77;;
71562;SDS011;59391;52.504;13.438;2023-04-15T12:22:17;16.00;;;12.15;;
71562;SDS011;59391;52.504;13.438;2023-04-15T12:24:43;17.48;;;13.05;;
71562;SDS011;59391;52.504;13.438;2023-04-15T12:27:12;17.90;;;12.17;;
71562;SDS011;59391;52.504;13.438;2023-04-15T12:29:41;20.52;;;14.95;;
71562;SDS011;59391;52.504;13.438;2023-04-15T12:32:11;17.35;;;12.18;;
71562;SDS011;59391;52.504;13.438;2023-04-15T12:34:39;16.70;;;12.57;;
71562;SDS011;59391;52.504;13.438;2023-04-15T12:37:10;16.70;;;12.23;;
71562;SDS011;59391;52.504;13.438;2023-04-15T12:39:41;14.90;;;11.67;;
71562;SDS011;59391;52.504;13.438;2023-04-15T12:42:08;17.13;;;12.27;;
71562;SDS011;59391;52.504;13.438;2023-04-15T12:44:35;16.85;;;13.02;;
71562;SDS011;59391;52.504;13.438;2023-04-15T12:47:02;14.88;;;10.80;;
71562;SDS011;59391;52.504;13.438;2023-04-15T12:49:29;16.75;;;11.40;;
71562;SDS011;59391;52.504;13.438;2023-04-15T12:51:56;14.67;;;10.77;;
71562;SDS011;59391;52.504;13.438;2023-04-15T12:54:24;15.30;;;11.23;;
71562;SDS011;59391;52.504;13.438;2023-04-15T12:56:52;15.27;;;10.88;;
71562;SDS011;59391;52.504;13.438;2023-04-15T12:59:18;14.55;;;11.10;;
71562;SDS011;59391;52.504;13.438;2023-04-15T13:01:45;12.65;;;10.18;;
71562;SDS011;59391;52.504;13.438;2023-04-15T13:04:12;15.27;;;12.07;;
71562;SDS011;59391;52.504;13.438;2023-04-15T13:06:41;15.30;;;11.38;;
71562;SDS011;59391;52.504;13.438;2023-04-15T13:09:08;15.95;;;11.93;;
71562;SDS011;59391;52.504;13.438;2023-04-15T13:11:33;15.50;;;11.48;;
71562;SDS011;59391;52.504;13.438;2023-04-15T13:14:00;14.83;;;11.00;;
71562;SDS011;59391;52.504;13.438;2023-04-15T13:16:28;14.75;;;11.40;;
71562;SDS011;59391;52.504;13.438;2023-04-15T13:18:55;15.50;;;11.30;;
71562;SDS011;59391;52.504;13.438;2023-04-15T13:21:22;15.52;;;10.77;;
71562;SDS011;59391;52.504;13.438;2023-04-15T13:23:48;15.97;;;10.63;;
71562;SDS011;59391;52.504;13.438;2023-04-15T13:26:15;13.73;;;10.80;;
71562;SDS011;59391;52.504;13.438;2023-04-15T13:28:41;13.60;;;10.27;;
71562;SDS011;59391;52.504;13.438;2023-04-15T13:31:07;13.37;;;9.97;;
71562;SDS011;59391;52.504;13.438;2023-04-15T13:33:32;13.95;;;10.55;;
71562;SDS011;59391;52.504;13.438;2023-04-15T13:35:58;12.63;;;10.13;;
71562;SDS011;59391;52.504;13.438;2023-04-15T13:38:24;14.05;;;10.40;;
71562;SDS011;59391;52.504;13.438;2023-04-15T13:40:50;11.90;;;9.77;;
71562;SDS011;59391;52.504;13.438;2023-04-15T13:43:15;12.30;;;9.23;;
71562;SDS011;59391;52.504;13.438;2023-04-15T13:45:41;14.70;;;10.52;;
71562;SDS011;59391;52.504;13.438;2023-04-15T13:48:07;13.18;;;10.18;;
71562;SDS011;59391;52.504;13.438;2023-04-15T13:50:33;11.63;;;9.23;;
71562;SDS011;59391;52.504;13.438;2023-04-15T13:52:59;13.25;;;9.77;;
71562;SDS011;59391;52.504;13.438;2023-04-15T13:55:24;12.97;;;9.67;;
71562;SDS011;59391;52.504;13.438;2023-04-15T13:57:50;14.15;;;10.13;;
71562;SDS011;59391;52.504;13.438;2023-04-15T14:00:16;13.30;;;9.70;;
71562;SDS011;59391;52.504;13.438;2023-04-15T14:02:42;12.82;;;9.90;;
71562;SDS011;59391;52.504;13.438;2023-04-15T14:05:09;11.35;;;8.60;;
71562;SDS011;59391;52.504;13.438;2023-04-15T14:07:34;12.00;;;8.77;;
71562;SDS011;59391;52.504;13.438;2023-04-15T14:10:01;10.85;;;8.82;;
71562;SDS011;59391;52.504;13.438;2023-04-15T14:12:27;11.23;;;8.25;;
71562;SDS011;59391;52.504;13.438;2023-04-15T14:14:53;11.03;;;8.37;;
71562;SDS011;59391;52.504;13.438;2023-04-15T14:17:18;11.63;;;8.93;;
71562;SDS011;59391;52.504;13.438;2023-04-15T14:19:52;11.43;;;8.53;;
71562;SDS011;59391;52.504;13.438;2023-04-15T14:22:27;12.68;;;8.82;;
71562;SDS011;59391;52.504;13.438;2023-04-15T14:24:52;11.90;;;8.88;;
71562;SDS011;59391;52.504;13.438;2023-04-15T14:27:19;10.87;;;8.80;;